In Rescue
 
Open Full Screen Window  High Contrast Mode
Wind Gusting 00 knots
11
January 20, 2021 4:40 PM EST
Weather Information
Wind Direction
  250 °
Wind Speed
  11 kt (13 mph)
Wind Gust
  00 kt (0 mph)
Altimeter
30.14 in
Visibility
10 SM
Temperature
03° C
37° F
Dewpoint
-08° C
18° F
Humidity
45%
1hr Rain Fall
00.00 in.
24hr Rain Fall
00.00 in.
Sky Condition
Clear
VFR

METAR KI69 202140Z AUTO 25011KT 10SM CLR 03/M08 A3014 RMK AO2 T00271081

FAA Disclaimer: The data displayed is for advisory purposes only and is not to be used for flight planning or operations.